Elizabethton, TN

3:06 AM EST on December 16, 2017 (GMT -0500)
Elizabethton

Weather History for K0A9 - January, 2013

Change the Weather History Date:

Tuesday, January 22, 2013

  Actual Average (KTRI) Record (KTRI)
Temperature  
Mean Temperature 22 °F -  
Max Temperature 26 °F 44 °F 73 °F (1938)
Min Temperature 17 °F 26 °F -10 °F (1970)
Degree Days  
Heating Degree Days 44    
Moisture  
Dew Point -2 °F    
Average Humidity 34    
Maximum Humidity 49    
Minimum Humidity 24    
Precipitation  
Precipitation 0.00 in - - ()
Sea Level Pressure  
Sea Level Pressure 30.19 in    
Wind  
Wind Speed 10 mph (West)    
Max Wind Speed 15 mph    
Max Gust Speed 22 mph    
Visibility 10 miles    
Events Snow    
Averages and records for this station are not official NWS values.
T = Trace of Precipitation, MM = Missing Value Source: NWS Daily Summary

Daily Weather History Graph

Daily Weather History Graph

Search for Another Location

Airport or City:

Trip Planner

Search our weather history database for the weather conditions in past years. The results will help you decide how hot, cold, wet, or windy it might be!

Date:

Astronomy

Jan. 22, 2013 Rise Set
Actual Time 7:36 AM EST 5:44 PM EST
Civil Twilight 7:08 AM EST 6:12 PM EST
Nautical Twilight 6:37 AM EST 6:43 PM EST
Astronomical Twilight 6:06 AM EST 7:14 PM EST
Moon 2:07 PM EST (1/22) 3:55 AM EST (1/22)
Length of Visible Light 11h 03m
Length of Day
10h 08m
Waxing Gibbous, 82% of the Moon is Illuminated
Jan 22
Waxing Gibbous
Jan 26
Full
Feb 3
Last Quarter
Feb 10
New
Feb 17
First Quarter

Hourly Weather History & Observations

Time (EST) Temp. Windchill Dew Point Humidity Pressure Visibility Wind Dir Wind Speed Gust Speed Precip Events Conditions
12:55 AM 24.8 °F 14.6 °F 6.8 °F 46% 30.11 in 10.0 mi West 10.4 mph - N/A   Overcast
1:15 AM 24.8 °F 14.6 °F 5.0 °F 43% 30.10 in 10.0 mi West 10.4 mph - N/A   Mostly Cloudy
1:35 AM 23.0 °F 13.9 °F 1.4 °F 39% 30.10 in 10.0 mi West 8.1 mph - N/A   Partly Cloudy
1:55 AM 24.8 °F 14.6 °F 1.4 °F 36% 30.11 in 10.0 mi WNW 10.4 mph - N/A   Mostly Cloudy
2:15 AM 23.0 °F 13.1 °F 1.4 °F 39% 30.10 in 10.0 mi West 9.2 mph - N/A   Mostly Cloudy
2:55 AM 21.2 °F 9.5 °F 3.2 °F 46% 30.13 in 10.0 mi WNW 11.5 mph - N/A   Scattered Clouds
3:15 AM 21.2 °F 8.3 °F 1.4 °F 42% 30.13 in 10.0 mi West 13.8 mph - N/A   Clear
3:55 AM 21.2 °F 8.3 °F 1.4 °F 42% 30.13 in 10.0 mi West 13.8 mph - N/A   Clear
4:15 AM 21.2 °F 8.9 °F 1.4 °F 42% 30.13 in 10.0 mi West 12.7 mph - N/A   Clear
4:35 AM 19.4 °F 6.6 °F 1.4 °F 46% 30.14 in 10.0 mi WNW 12.7 mph - N/A   Clear
4:55 AM 19.4 °F 6.6 °F 1.4 °F 46% 30.13 in 10.0 mi West 12.7 mph - N/A Snow Light Snow
5:15 AM 19.4 °F 7.9 °F 1.4 °F 46% 30.14 in 10.0 mi West 10.4 mph - N/A Snow Light Snow
5:35 AM 19.4 °F 8.6 °F 1.4 °F 46% 30.14 in 10.0 mi WNW 9.2 mph - N/A   Clear
5:55 AM 19.4 °F 7.9 °F 1.4 °F 46% 30.15 in 10.0 mi West 10.4 mph - N/A   Clear
6:15 AM 19.4 °F 7.9 °F 1.4 °F 46% 30.16 in 10.0 mi West 10.4 mph - N/A   Clear
6:35 AM 17.6 °F 7.3 °F 1.4 °F 49% 30.16 in 10.0 mi West 8.1 mph - N/A   Clear
6:55 AM 17.6 °F 7.3 °F 1.4 °F 49% 30.17 in 10.0 mi West 8.1 mph - N/A   Clear
7:15 AM 17.6 °F 7.3 °F -0.4 °F 45% 30.18 in 10.0 mi West 8.1 mph - N/A   Clear
7:35 AM 17.6 °F 7.3 °F -0.4 °F 45% 30.19 in 10.0 mi West 8.1 mph - N/A   Clear
7:55 AM 17.6 °F 6.4 °F -0.4 °F 45% 30.20 in 10.0 mi West 9.2 mph - N/A   Clear
8:15 AM 19.4 °F 10.4 °F -2.2 °F 39% 30.20 in 10.0 mi Variable 6.9 mph - N/A   Clear
8:35 AM 19.4 °F 8.6 °F -2.2 °F 39% 30.21 in 10.0 mi West 9.2 mph - N/A   Clear
8:55 AM 19.4 °F 7.9 °F -2.2 °F 39% 30.22 in 10.0 mi West 10.4 mph - N/A   Clear
9:15 AM 19.4 °F 5.5 °F -4.0 °F 36% 30.22 in 10.0 mi West 15.0 mph - N/A   Clear
9:35 AM 21.2 °F 9.5 °F -2.2 °F 36% 30.22 in 10.0 mi NW 11.5 mph - N/A   Clear
9:55 AM 21.2 °F 8.9 °F -2.2 °F 36% 30.23 in 10.0 mi West 12.7 mph - N/A   Clear
10:35 AM 21.2 °F 7.8 °F -5.8 °F 30% 30.24 in 10.0 mi West 15.0 mph - N/A   Clear
10:55 AM 21.2 °F 7.8 °F -5.8 °F 30% 30.25 in 10.0 mi West 15.0 mph - N/A   Clear
11:15 AM 23.0 °F 12.4 °F -5.8 °F 28% 30.25 in 10.0 mi SW 10.4 mph - N/A   Clear
11:35 AM 24.8 °F 14.6 °F -4.0 °F 28% 30.25 in 10.0 mi West 10.4 mph - N/A   Clear
11:55 AM 24.8 °F 12.9 °F -5.8 °F 26% 30.24 in 10.0 mi West 13.8 mph - N/A   Clear
12:15 PM 24.8 °F 13.4 °F -5.8 °F 26% 30.24 in 10.0 mi West 12.7 mph - N/A   Clear
12:35 PM 24.8 °F 12.4 °F -5.8 °F 26% 30.23 in 10.0 mi WNW 15.0 mph - N/A   Clear
12:55 PM 24.8 °F 13.4 °F -2.2 °F 31% 30.22 in 10.0 mi WNW 12.7 mph - N/A   Clear
1:15 PM 26.6 °F 15.7 °F -2.2 °F 29% 30.21 in 10.0 mi West 12.7 mph 21.9 mph N/A   Clear
1:35 PM 26.6 °F 16.8 °F -5.8 °F 24% 30.20 in 10.0 mi West 10.4 mph - N/A   Clear
1:55 PM 26.6 °F 16.8 °F -2.2 °F 29% 30.20 in 10.0 mi WNW 10.4 mph - N/A   Clear
2:15 PM 26.6 °F 14.7 °F -2.2 °F 29% 30.19 in 10.0 mi WNW 15.0 mph - N/A   Clear
2:35 PM 26.6 °F 17.5 °F -4.0 °F 26% 30.19 in 10.0 mi West 9.2 mph - N/A   Clear
2:55 PM 26.6 °F 15.7 °F -5.8 °F 24% 30.19 in 10.0 mi WNW 12.7 mph - N/A   Clear
3:15 PM 26.6 °F 17.5 °F -4.0 °F 26% 30.19 in 10.0 mi West 9.2 mph - N/A   Clear
3:35 PM 26.6 °F 15.7 °F -5.8 °F 24% 30.19 in 10.0 mi WSW 12.7 mph - N/A   Clear
3:55 PM 26.6 °F 16.2 °F -2.2 °F 29% 30.19 in 10.0 mi West 11.5 mph - N/A   Clear
4:15 PM 26.6 °F 15.2 °F -4.0 °F 26% 30.20 in 10.0 mi West 13.8 mph - N/A   Clear
4:35 PM 26.6 °F 15.2 °F -2.2 °F 29% 30.19 in 10.0 mi WSW 13.8 mph - N/A   Clear
4:55 PM 26.6 °F 19.1 °F -2.2 °F 29% 30.20 in 10.0 mi WSW 6.9 mph - N/A   Clear
5:15 PM 24.8 °F 15.3 °F -2.2 °F 31% 30.21 in 10.0 mi WSW 9.2 mph - N/A   Clear
5:35 PM 24.8 °F 15.3 °F -5.8 °F 26% 30.22 in 10.0 mi WSW 9.2 mph - N/A   Clear
5:55 PM 24.8 °F 16.1 °F -5.8 °F 26% 30.22 in 10.0 mi West 8.1 mph - N/A   Partly Cloudy
6:15 PM 24.8 °F 16.1 °F -5.8 °F 26% 30.22 in 10.0 mi WSW 8.1 mph - N/A   Mostly Cloudy
6:35 PM 24.8 °F 16.1 °F -5.8 °F 26% 30.21 in 10.0 mi WSW 8.1 mph - N/A   Overcast
6:55 PM 24.8 °F 19.1 °F -2.2 °F 31% 30.21 in 10.0 mi West 4.6 mph - N/A   Overcast
7:15 PM 24.8 °F 17.9 °F -2.2 °F 31% 30.22 in 10.0 mi West 5.8 mph - N/A   Overcast
7:35 PM 24.8 °F 17.9 °F -2.2 °F 31% 30.22 in 10.0 mi West 5.8 mph - N/A   Overcast
7:55 PM 24.8 °F 16.9 °F -0.4 °F 34% 30.22 in 10.0 mi WSW 6.9 mph - N/A   Overcast
8:15 PM 24.8 °F 16.1 °F -0.4 °F 34% 30.22 in 10.0 mi West 8.1 mph - N/A   Overcast
8:35 PM 24.8 °F 16.1 °F -2.2 °F 31% 30.22 in 10.0 mi West 8.1 mph - N/A   Overcast
8:55 PM 24.8 °F 16.1 °F -2.2 °F 31% 30.23 in 10.0 mi WNW 8.1 mph - N/A   Overcast
9:15 PM 24.8 °F 15.3 °F -2.2 °F 31% 30.24 in 10.0 mi West 9.2 mph - N/A   Overcast
9:35 PM 24.8 °F 14.6 °F -2.2 °F 31% 30.23 in 10.0 mi West 10.4 mph - N/A   Overcast
9:55 PM 24.8 °F 16.9 °F -2.2 °F 31% 30.24 in 10.0 mi West 6.9 mph - N/A   Overcast
10:15 PM 24.8 °F 16.1 °F -4.0 °F 28% 30.23 in 10.0 mi West 8.1 mph - N/A   Overcast
10:35 PM 24.8 °F 14.6 °F -5.8 °F 26% 30.23 in 10.0 mi West 10.4 mph - N/A   Overcast
10:55 PM 24.8 °F 16.9 °F -5.8 °F 26% 30.24 in 10.0 mi West 6.9 mph - N/A   Overcast
11:15 PM 24.8 °F 16.1 °F -4.0 °F 28% 30.23 in 10.0 mi West 8.1 mph - N/A   Overcast
11:55 PM 21.2 °F 11.7 °F -4.0 °F 33% 30.23 in 10.0 mi West 8.1 mph - N/A   Mostly Cloudy